createdAt,value
2022-11-08T00:00:43.821Z,9.80
2022-11-08T00:03:11.292Z,9.80
2022-11-08T00:05:57.426Z,9.80
2022-11-08T00:08:43.354Z,9.80
2022-11-08T00:11:31.500Z,9.80
2022-11-08T00:14:01.768Z,9.80
2022-11-08T00:16:29.520Z,9.80
2022-11-08T00:18:57.104Z,9.90
2022-11-08T00:21:24.681Z,9.90
2022-11-08T00:23:56.492Z,9.90
2022-11-08T00:26:23.867Z,9.90
2022-11-08T00:28:50.991Z,9.90
2022-11-08T00:31:18.429Z,9.90
2022-11-08T00:33:48.522Z,9.90
2022-11-08T00:36:15.934Z,9.80
2022-11-08T00:38:45.384Z,9.90
2022-11-08T00:41:13.141Z,9.90
2022-11-08T00:43:42.555Z,9.90
2022-11-08T00:46:10.241Z,9.90
2022-11-08T00:48:39.884Z,10.00
2022-11-08T00:51:10.325Z,10.00
2022-11-08T00:53:38.683Z,9.90
2022-11-08T00:56:12.277Z,9.90
2022-11-08T00:58:41.620Z,9.90
2022-11-08T01:01:13.256Z,9.90
2022-11-08T01:03:40.543Z,9.90
2022-11-08T01:06:12.319Z,9.90
2022-11-08T01:08:39.674Z,10.00
2022-11-08T01:11:14.133Z,9.90
2022-11-08T01:13:41.712Z,9.80
2022-11-08T01:16:11.964Z,9.90
2022-11-08T01:18:40.092Z,9.90
2022-11-08T01:21:10.370Z,9.90
2022-11-08T01:23:37.904Z,9.90
2022-11-08T01:26:08.909Z,10.00
2022-11-08T01:28:41.340Z,10.00
2022-11-08T01:31:13.594Z,9.90
2022-11-08T01:33:42.953Z,9.90
2022-11-08T01:36:17.536Z,9.90
2022-11-08T01:38:44.770Z,9.90
2022-11-08T01:41:14.298Z,9.90
2022-11-08T01:43:44.381Z,9.90
2022-11-08T01:46:43.478Z,9.90
2022-11-08T01:49:32.573Z,9.80
2022-11-08T01:52:19.419Z,9.80
2022-11-08T01:55:00.434Z,9.80
2022-11-08T01:57:36.482Z,9.70
2022-11-08T02:00:08.048Z,9.70
2022-11-08T02:02:36.895Z,9.70
2022-11-08T02:05:06.665Z,9.70
2022-11-08T02:07:34.764Z,9.70
2022-11-08T02:10:04.818Z,9.60
2022-11-08T02:12:36.895Z,9.60
2022-11-08T02:15:07.697Z,9.60
2022-11-08T02:17:37.274Z,9.50
2022-11-08T02:20:04.712Z,9.50
2022-11-08T02:22:41.892Z,9.50
2022-11-08T02:25:09.167Z,9.50
2022-11-08T02:27:38.928Z,9.50
2022-11-08T02:30:06.489Z,9.50
2022-11-08T02:32:40.858Z,9.50
2022-11-08T02:35:15.127Z,9.50
2022-11-08T02:37:45.610Z,9.50
2022-11-08T02:40:15.233Z,9.40
2022-11-08T02:42:50.467Z,9.40
2022-11-08T02:45:17.639Z,9.40
2022-11-08T02:47:47.983Z,9.40
2022-11-08T02:50:15.123Z,9.50
2022-11-08T02:52:44.712Z,9.50
2022-11-08T02:55:11.849Z,9.50
2022-11-08T02:57:39.188Z,9.50
2022-11-08T03:00:06.848Z,9.50
2022-11-08T03:02:34.327Z,9.50
2022-11-08T03:05:01.413Z,9.50
2022-11-08T03:07:28.852Z,9.50
2022-11-08T03:09:58.224Z,9.60
2022-11-08T03:12:30.135Z,9.60
2022-11-08T03:14:59.487Z,9.60
2022-11-08T03:17:26.795Z,9.60
2022-11-08T03:19:53.950Z,9.60
2022-11-08T03:22:26.070Z,9.60
2022-11-08T03:24:55.312Z,9.70
2022-11-08T03:27:23.803Z,9.60
2022-11-08T03:29:53.009Z,9.60
2022-11-08T03:32:20.404Z,9.60
2022-11-08T03:34:49.805Z,9.50
2022-11-08T03:37:17.232Z,9.50
2022-11-08T03:39:46.751Z,9.40
2022-11-08T03:42:14.316Z,9.40
2022-11-08T03:44:43.639Z,9.40
2022-11-08T03:47:10.980Z,9.40
2022-11-08T03:49:40.341Z,9.40
2022-11-08T03:52:09.988Z,9.40
2022-11-08T03:54:42.058Z,9.30
2022-11-08T03:57:11.998Z,9.30
2022-11-08T03:59:39.085Z,9.30
2022-11-08T04:02:06.446Z,9.30
2022-11-08T04:04:36.201Z,9.30
2022-11-08T04:07:03.582Z,9.30
2022-11-08T04:09:33.029Z,9.20
2022-11-08T04:12:18.793Z,9.20
2022-11-08T04:15:09.103Z,9.20
2022-11-08T04:17:54.970Z,9.10
2022-11-08T04:20:40.563Z,9.00
2022-11-08T04:23:10.165Z,8.90
2022-11-08T04:25:37.254Z,8.80
2022-11-08T04:28:05.373Z,8.80
2022-11-08T04:30:33.459Z,8.80
2022-11-08T04:33:01.857Z,8.70
2022-11-08T04:35:30.182Z,8.60
2022-11-08T04:38:02.046Z,8.50
2022-11-08T04:40:33.174Z,8.40
2022-11-08T04:43:05.728Z,8.30
2022-11-08T04:45:32.778Z,8.30
2022-11-08T04:48:05.145Z,8.30
2022-11-08T04:50:32.379Z,8.30
2022-11-08T04:52:59.715Z,8.20
2022-11-08T04:55:26.799Z,8.20
2022-11-08T04:57:59.981Z,8.10
2022-11-08T05:00:27.492Z,8.10
2022-11-08T05:02:55.200Z,8.00
2022-11-08T05:05:24.964Z,8.00
2022-11-08T05:07:53.601Z,8.00
2022-11-08T05:10:20.781Z,8.00
2022-11-08T05:12:48.086Z,8.00
2022-11-08T05:15:15.199Z,8.00
2022-11-08T05:17:44.910Z,7.90
2022-11-08T05:20:30.420Z,7.80
2022-11-08T05:23:21.002Z,7.90
2022-11-08T05:25:54.650Z,7.80
2022-11-08T05:28:24.472Z,7.80
2022-11-08T05:30:58.841Z,7.90
2022-11-08T05:33:30.940Z,7.80
2022-11-08T05:36:06.023Z,7.80
2022-11-08T05:38:34.553Z,7.90
2022-11-08T05:41:16.271Z,7.80
2022-11-08T05:43:46.343Z,7.80
2022-11-08T05:46:17.211Z,7.80
2022-11-08T05:48:46.938Z,7.80
2022-11-08T05:51:18.936Z,7.80
2022-11-08T05:53:49.423Z,7.80
2022-11-08T05:56:21.268Z,7.70
2022-11-08T05:58:48.689Z,7.80
2022-11-08T06:01:20.415Z,7.80
2022-11-08T06:03:50.363Z,7.80
2022-11-08T06:06:23.325Z,7.80
2022-11-08T06:08:51.662Z,7.80
2022-11-08T06:11:25.340Z,7.80
2022-11-08T06:13:54.415Z,7.80
2022-11-08T06:16:23.426Z,7.80
2022-11-08T06:18:53.072Z,7.70
2022-11-08T06:21:21.356Z,7.70
2022-11-08T06:23:54.699Z,7.70
2022-11-08T06:26:24.845Z,7.70
2022-11-08T06:28:52.562Z,7.70
2022-11-08T06:31:21.853Z,7.70
2022-11-08T06:33:52.246Z,7.80
2022-11-08T06:36:21.119Z,7.80
2022-11-08T06:38:48.836Z,7.80
2022-11-08T06:41:18.939Z,7.90
2022-11-08T06:43:48.948Z,8.00
2022-11-08T06:46:16.783Z,8.00
2022-11-08T06:48:46.212Z,8.00
2022-11-08T06:51:13.632Z,8.00
2022-11-08T06:53:41.079Z,8.00
2022-11-08T06:56:10.659Z,8.10
2022-11-08T06:58:41.023Z,8.10
2022-11-08T07:01:10.625Z,8.20
2022-11-08T07:03:38.196Z,8.30
2022-11-08T07:06:06.317Z,8.30
2022-11-08T07:08:34.505Z,8.40
2022-11-08T07:11:04.551Z,8.40
2022-11-08T07:13:36.378Z,8.50
2022-11-08T07:16:03.779Z,8.50
2022-11-08T07:18:31.204Z,8.60
2022-11-08T07:21:00.198Z,8.60
2022-11-08T07:23:28.737Z,8.60
2022-11-08T07:25:56.446Z,8.70
2022-11-08T07:28:25.935Z,8.70
2022-11-08T07:30:58.858Z,8.80
2022-11-08T07:33:26.299Z,8.90
2022-11-08T07:35:55.761Z,9.00
2022-11-08T07:38:23.340Z,9.00
2022-11-08T07:40:51.542Z,9.00
2022-11-08T07:43:21.885Z,9.00
2022-11-08T07:45:56.462Z,9.20
2022-11-08T07:48:27.663Z,9.30
2022-11-08T07:50:55.365Z,9.40
2022-11-08T07:53:25.352Z,9.40
2022-11-08T07:55:55.338Z,9.50
2022-11-08T07:58:25.300Z,9.60
2022-11-08T08:00:52.589Z,9.60
2022-11-08T08:03:20.539Z,9.70
2022-11-08T08:05:56.527Z,9.80
2022-11-08T08:08:27.185Z,9.80
2022-11-08T08:10:58.613Z,9.80
2022-11-08T08:13:31.972Z,9.90
2022-11-08T08:16:00.981Z,9.90
2022-11-08T08:18:31.876Z,10.00
2022-11-08T08:20:59.252Z,10.10
2022-11-08T08:23:26.773Z,10.10
2022-11-08T08:25:54.040Z,10.10
2022-11-08T08:28:21.561Z,10.20
2022-11-08T08:30:50.914Z,10.30
2022-11-08T08:33:29.436Z,10.30
2022-11-08T08:35:57.944Z,10.40
2022-11-08T08:38:27.911Z,10.40
2022-11-08T08:40:58.485Z,10.50
2022-11-08T08:43:33.021Z,10.60
2022-11-08T08:46:07.397Z,10.60
2022-11-08T08:48:38.854Z,10.70
2022-11-08T08:51:08.919Z,10.70
2022-11-08T08:53:36.141Z,10.70
2022-11-08T08:56:07.321Z,10.80
2022-11-08T08:58:39.033Z,10.80
2022-11-08T09:03:58.310Z,10.90
2022-11-08T09:06:26.012Z,11.00
2022-11-08T09:08:59.363Z,11.00
2022-11-08T09:11:29.200Z,11.10
2022-11-08T09:13:56.352Z,11.10
2022-11-08T09:16:26.088Z,11.20
2022-11-08T09:18:55.798Z,11.30
2022-11-08T09:21:23.279Z,11.30
2022-11-08T09:23:50.519Z,11.40
2022-11-08T09:26:18.002Z,11.40
2022-11-08T09:28:47.552Z,11.50
2022-11-08T09:31:19.520Z,11.50
2022-11-08T09:33:53.500Z,11.60
2022-11-08T09:36:21.321Z,11.60
2022-11-08T09:38:48.964Z,11.70
2022-11-08T09:41:20.641Z,11.80
2022-11-08T09:44:03.974Z,11.80
2022-11-08T09:46:48.063Z,11.80
2022-11-08T09:49:41.085Z,11.90
2022-11-08T09:52:21.865Z,12.00
2022-11-08T09:54:53.479Z,12.00
2022-11-08T09:57:27.389Z,12.10
2022-11-08T10:00:05.539Z,12.20
2022-11-08T10:02:36.424Z,12.20
2022-11-08T10:05:08.525Z,12.20
2022-11-08T10:07:57.013Z,12.20
2022-11-08T10:11:17.281Z,12.20
2022-11-08T10:14:06.309Z,12.40
2022-11-08T10:16:36.184Z,12.40
2022-11-08T10:19:11.269Z,12.50
2022-11-08T10:22:14.506Z,12.50
2022-11-08T10:25:00.413Z,12.50
2022-11-08T10:27:44.105Z,12.50
2022-11-08T10:30:32.115Z,12.50
2022-11-08T10:33:01.589Z,12.60
2022-11-08T10:35:42.979Z,12.70
2022-11-08T10:38:26.147Z,12.80
2022-11-08T10:41:25.077Z,12.70
2022-11-08T10:44:02.389Z,12.70
2022-11-08T10:46:45.818Z,12.70
2022-11-08T10:49:21.198Z,12.70
2022-11-08T10:51:54.354Z,12.90
2022-11-08T10:54:52.395Z,12.90
2022-11-08T10:57:31.391Z,12.90
2022-11-08T11:00:15.985Z,12.90
2022-11-08T11:02:45.048Z,13.00
2022-11-08T11:05:22.128Z,13.10
2022-11-08T11:08:00.767Z,13.00
2022-11-08T11:10:45.718Z,13.10
2022-11-08T11:13:28.682Z,13.10
2022-11-08T11:16:06.835Z,13.10
2022-11-08T11:18:58.179Z,13.20
2022-11-08T11:21:38.446Z,13.20
2022-11-08T11:24:19.291Z,13.30
2022-11-08T11:26:56.581Z,13.30
2022-11-08T11:29:31.202Z,13.30
2022-11-08T11:32:34.692Z,13.30
2022-11-08T11:35:10.020Z,13.30
2022-11-08T11:37:43.656Z,13.40
2022-11-08T11:40:14.452Z,13.40
2022-11-08T11:43:01.887Z,13.50
2022-11-08T11:45:44.764Z,13.50
2022-11-08T11:48:27.797Z,13.60
2022-11-08T11:50:59.164Z,13.60
2022-11-08T11:53:33.114Z,13.60
2022-11-08T11:56:12.450Z,13.60
2022-11-08T11:59:03.086Z,13.60
2022-11-08T12:01:38.828Z,13.60
2022-11-08T12:04:26.185Z,13.60
2022-11-08T12:07:11.740Z,13.60
2022-11-08T12:09:48.710Z,13.70
2022-11-08T12:12:57.559Z,13.70
2022-11-08T12:15:44.832Z,13.70
2022-11-08T12:18:25.753Z,13.70
2022-11-08T12:21:30.213Z,13.70
2022-11-08T12:24:17.901Z,13.70
2022-11-08T12:26:58.234Z,13.80
2022-11-08T12:29:30.758Z,13.70
2022-11-08T12:32:04.426Z,13.80
2022-11-08T12:34:46.271Z,13.80
2022-11-08T12:37:46.369Z,13.80
2022-11-08T12:40:35.337Z,13.80
2022-11-08T12:43:08.483Z,13.80
2022-11-08T12:46:01.724Z,13.80
2022-11-08T12:48:49.753Z,13.80
2022-11-08T12:51:40.631Z,13.80
2022-11-08T12:54:31.521Z,13.80
2022-11-08T12:57:08.309Z,13.80
2022-11-08T12:59:47.683Z,13.90
2022-11-08T13:02:32.128Z,13.90
2022-11-08T13:05:18.093Z,13.80
2022-11-08T13:08:12.965Z,13.80
2022-11-08T13:11:00.876Z,13.90
2022-11-08T13:13:36.933Z,13.80
2022-11-08T13:16:16.204Z,13.90
2022-11-08T13:18:51.993Z,13.80
2022-11-08T13:21:27.524Z,13.80
2022-11-08T13:24:42.964Z,13.80
2022-11-08T13:27:29.873Z,13.80
2022-11-08T13:30:11.381Z,13.80
2022-11-08T13:33:08.059Z,13.80
2022-11-08T13:36:18.489Z,13.80
2022-11-08T13:39:19.174Z,13.80
2022-11-08T13:42:08.620Z,13.70
2022-11-08T13:44:54.505Z,13.70
2022-11-08T13:47:36.777Z,13.70
2022-11-08T13:50:29.320Z,13.70
2022-11-08T13:53:23.278Z,13.70
2022-11-08T13:55:58.009Z,13.70
2022-11-08T13:58:47.811Z,13.70
2022-11-08T14:01:21.046Z,13.60
2022-11-08T14:03:51.540Z,13.60
2022-11-08T14:06:43.330Z,13.60
2022-11-08T14:09:30.684Z,13.60
2022-11-08T14:12:15.695Z,13.50
2022-11-08T14:15:10.433Z,13.50
2022-11-08T14:17:48.869Z,13.50
2022-11-08T14:20:16.593Z,13.50
2022-11-08T14:22:49.949Z,13.50
2022-11-08T14:25:31.293Z,13.40
2022-11-08T14:27:58.733Z,13.40
2022-11-08T14:30:29.013Z,13.30
2022-11-08T14:33:31.717Z,13.30
2022-11-08T14:36:07.659Z,13.20
2022-11-08T14:39:13.888Z,13.20
2022-11-08T14:41:46.562Z,13.10
2022-11-08T14:44:19.487Z,13.20
2022-11-08T14:46:48.529Z,13.10
2022-11-08T14:49:18.681Z,13.00
2022-11-08T14:52:06.469Z,13.00
2022-11-08T14:54:42.626Z,13.00
2022-11-08T14:57:33.187Z,12.90
2022-11-08T15:00:05.480Z,12.90
2022-11-08T15:02:36.762Z,12.80
2022-11-08T15:05:06.559Z,12.80
2022-11-08T15:07:36.677Z,12.70
2022-11-08T15:10:08.619Z,12.60
2022-11-08T15:12:42.414Z,12.50
2022-11-08T15:15:22.093Z,12.50
2022-11-08T15:18:29.257Z,12.40
2022-11-08T15:21:04.729Z,12.30
2022-11-08T15:23:43.141Z,12.30
2022-11-08T15:26:31.704Z,12.20
2022-11-08T15:29:05.902Z,12.10
2022-11-08T15:31:42.025Z,12.00
2022-11-08T15:34:25.593Z,12.00
2022-11-08T15:36:53.882Z,11.90
2022-11-08T15:39:36.538Z,11.80
2022-11-08T15:42:15.441Z,11.80
2022-11-08T15:45:07.841Z,11.70
2022-11-08T15:47:42.116Z,11.60
2022-11-08T15:50:17.546Z,11.60
2022-11-08T15:52:46.977Z,11.50
2022-11-08T15:55:22.671Z,11.50
2022-11-08T15:57:50.460Z,11.40
2022-11-08T16:00:26.740Z,11.40
2022-11-08T16:02:54.157Z,11.40
2022-11-08T16:05:24.719Z,11.30
2022-11-08T16:07:52.727Z,11.30
2022-11-08T16:10:31.758Z,11.20
2022-11-08T16:13:01.022Z,11.20
2022-11-08T16:15:34.229Z,11.20
2022-11-08T16:18:02.662Z,11.20
2022-11-08T16:20:33.152Z,11.10
2022-11-08T16:23:10.990Z,11.10
2022-11-08T16:25:50.672Z,11.10
2022-11-08T16:28:38.320Z,11.00
2022-11-08T16:31:10.917Z,11.00
2022-11-08T16:33:37.997Z,11.00
2022-11-08T16:36:23.130Z,11.00
2022-11-08T16:38:54.240Z,10.90
2022-11-08T16:41:25.357Z,10.90
2022-11-08T16:43:52.693Z,10.90
2022-11-08T16:46:21.678Z,10.80
2022-11-08T16:48:54.317Z,10.80
2022-11-08T16:51:23.278Z,10.70
2022-11-08T16:53:53.496Z,10.70
2022-11-08T16:56:23.296Z,10.60
2022-11-08T16:58:55.105Z,10.60
2022-11-08T17:01:33.030Z,10.60
2022-11-08T17:04:00.468Z,10.60
2022-11-08T17:06:30.329Z,10.50
2022-11-08T17:08:59.840Z,10.50
2022-11-08T17:11:31.774Z,10.40
2022-11-08T17:13:59.271Z,10.40
2022-11-08T17:16:27.270Z,10.40
2022-11-08T17:18:54.677Z,10.40
2022-11-08T17:21:44.751Z,10.40
2022-11-08T17:24:20.939Z,10.40
2022-11-08T17:26:50.176Z,10.30
2022-11-08T17:29:20.179Z,10.30
2022-11-08T17:31:50.279Z,10.30
2022-11-08T17:34:20.415Z,10.20
2022-11-08T17:36:47.832Z,10.20
2022-11-08T17:39:17.513Z,10.20
2022-11-08T17:41:44.910Z,10.20
2022-11-08T17:44:15.017Z,10.10
2022-11-08T17:46:44.903Z,10.10
2022-11-08T17:49:12.213Z,10.10
2022-11-08T17:51:39.741Z,10.10
2022-11-08T17:54:08.966Z,10.10
2022-11-08T17:56:39.017Z,10.10
2022-11-08T17:59:08.281Z,10.10
2022-11-08T18:01:38.821Z,10.10
2022-11-08T18:04:06.643Z,10.00
2022-11-08T18:06:34.484Z,10.10
2022-11-08T18:09:07.072Z,10.10
2022-11-08T18:11:38.448Z,10.00
2022-11-08T18:14:06.044Z,10.00
2022-11-08T18:16:37.682Z,10.00
2022-11-08T18:19:07.364Z,9.90
2022-11-08T18:21:37.464Z,9.90
2022-11-08T18:24:07.660Z,9.90
2022-11-08T18:26:40.100Z,9.90
2022-11-08T18:29:10.395Z,9.90
2022-11-08T18:31:38.483Z,9.90
2022-11-08T18:34:05.687Z,9.90
2022-11-08T18:36:36.127Z,9.80
2022-11-08T18:39:05.778Z,9.80
2022-11-08T18:41:34.092Z,9.80
2022-11-08T18:44:01.426Z,9.70
2022-11-08T18:46:36.529Z,9.60
2022-11-08T18:49:06.228Z,9.60
2022-11-08T18:51:33.645Z,9.60
2022-11-08T18:54:00.813Z,9.60
2022-11-08T18:56:30.705Z,9.60
2022-11-08T18:59:02.503Z,9.50
2022-11-08T19:01:30.651Z,9.50
2022-11-08T19:04:02.126Z,9.40
2022-11-08T19:06:32.183Z,9.50
2022-11-08T19:08:59.327Z,9.40
2022-11-08T19:11:30.472Z,9.50
2022-11-08T19:14:01.964Z,9.50
2022-11-08T19:16:29.965Z,9.50
2022-11-08T19:18:59.983Z,9.40
2022-11-08T19:21:27.891Z,9.40
2022-11-08T19:23:59.213Z,9.40
2022-11-08T19:26:29.561Z,9.40
2022-11-08T19:28:59.537Z,9.40
2022-11-08T19:31:27.048Z,9.40
2022-11-08T19:33:55.026Z,9.40
2022-11-08T19:36:24.910Z,9.40
2022-11-08T19:38:54.788Z,9.40
2022-11-08T19:41:27.208Z,9.40
2022-11-08T19:43:55.169Z,9.40
2022-11-08T19:46:29.133Z,9.40
2022-11-08T19:49:01.989Z,9.30
2022-11-08T19:51:34.273Z,9.30
2022-11-08T19:54:06.892Z,9.30
2022-11-08T19:57:03.981Z,9.30
2022-11-08T19:59:26.451Z,9.20
2022-11-08T20:01:56.610Z,9.20
2022-11-08T20:04:26.444Z,9.30
2022-11-08T20:06:54.178Z,9.30
2022-11-08T20:09:25.904Z,9.30
2022-11-08T20:11:56.890Z,9.20
2022-11-08T20:14:24.646Z,9.20
2022-11-08T20:16:54.659Z,9.20
2022-11-08T20:19:26.861Z,9.20
2022-11-08T20:21:57.229Z,9.20
2022-11-08T20:24:27.312Z,9.20
2022-11-08T20:26:55.397Z,9.20
2022-11-08T20:29:25.784Z,9.30
2022-11-08T20:31:56.607Z,9.30
2022-11-08T20:34:26.910Z,9.30
2022-11-08T20:36:54.564Z,9.40
2022-11-08T20:39:26.577Z,9.40
2022-11-08T20:41:56.893Z,9.40
2022-11-08T20:44:29.019Z,9.40
2022-11-08T20:46:58.789Z,9.50
2022-11-08T20:49:26.433Z,9.50
2022-11-08T20:52:00.684Z,9.50
2022-11-08T20:54:30.475Z,9.60
2022-11-08T20:56:57.636Z,9.60
2022-11-08T20:59:25.135Z,9.60
2022-11-08T21:01:52.523Z,9.60
2022-11-08T21:04:20.122Z,9.60
2022-11-08T21:06:47.487Z,9.60
2022-11-08T21:09:36.250Z,9.60
2022-11-08T21:12:04.775Z,9.60
2022-11-08T21:14:35.071Z,9.60
2022-11-08T21:19:51.829Z,9.60
2022-11-08T21:22:19.762Z,9.60
2022-11-08T21:24:50.217Z,9.70
2022-11-08T21:27:19.976Z,9.60
2022-11-08T21:29:50.724Z,9.60
2022-11-08T21:32:18.468Z,9.60
2022-11-08T21:34:47.325Z,9.60
2022-11-08T21:37:16.850Z,9.60
2022-11-08T21:39:46.692Z,9.60
2022-11-08T21:42:14.343Z,9.50
2022-11-08T21:44:41.821Z,9.60
2022-11-08T21:47:09.878Z,9.60
2022-11-08T21:49:40.034Z,9.60
2022-11-08T21:52:09.752Z,9.60
2022-11-08T21:54:37.486Z,9.60
2022-11-08T21:57:07.569Z,9.50
2022-11-08T21:59:39.817Z,9.50
2022-11-08T22:02:10.488Z,9.50
2022-11-08T22:04:38.311Z,9.50
2022-11-08T22:07:05.613Z,9.50
2022-11-08T22:09:35.339Z,9.50
2022-11-08T22:12:07.266Z,9.50
2022-11-08T22:14:35.866Z,9.40
2022-11-08T22:17:03.281Z,9.40
2022-11-08T22:19:33.154Z,9.40
2022-11-08T22:22:05.332Z,9.40
2022-11-08T22:24:32.662Z,9.30
2022-11-08T22:26:59.790Z,9.30
2022-11-08T22:29:27.025Z,9.30
2022-11-08T22:31:56.541Z,9.30
2022-11-08T22:34:24.175Z,9.30
2022-11-08T22:36:51.759Z,9.30
2022-11-08T22:39:21.135Z,9.30
2022-11-08T22:41:51.330Z,9.30
2022-11-08T22:44:19.930Z,9.30
2022-11-08T22:46:55.754Z,9.30
2022-11-08T22:49:23.056Z,9.30
2022-11-08T22:51:50.494Z,9.20
2022-11-08T22:54:20.329Z,9.20
2022-11-08T22:56:50.475Z,9.20
2022-11-08T22:59:22.002Z,9.20
2022-11-08T23:01:54.555Z,9.20
2022-11-08T23:04:21.840Z,9.20
2022-11-08T23:06:49.812Z,9.20
2022-11-08T23:09:21.853Z,9.10
2022-11-08T23:12:16.288Z,9.10
2022-11-08T23:15:19.060Z,9.10
2022-11-08T23:17:48.522Z,9.10
2022-11-08T23:20:38.911Z,9.10
2022-11-08T23:23:29.031Z,9.10
2022-11-08T23:25:56.836Z,9.00
2022-11-08T23:28:45.772Z,9.00
2022-11-08T23:31:32.104Z,8.90
2022-11-08T23:33:59.646Z,9.00
2022-11-08T23:36:28.537Z,8.90
2022-11-08T23:39:00.631Z,8.90
2022-11-08T23:41:48.320Z,8.90
2022-11-08T23:44:24.588Z,8.80
2022-11-08T23:46:56.076Z,8.80
2022-11-08T23:49:26.078Z,8.80
2022-11-08T23:51:53.761Z,8.70
2022-11-08T23:54:28.339Z,8.70
2022-11-08T23:56:55.533Z,8.70
2022-11-08T23:59:25.036Z,8.70
